createdAt,value
2023-02-15T00:01:58.845Z,102228.66
2023-02-15T00:04:47.195Z,102233.88
2023-02-15T00:07:19.547Z,102232.97
2023-02-15T00:09:48.969Z,102233.75
2023-02-15T00:12:19.517Z,102222.38
2023-02-15T00:14:48.316Z,102238.84
2023-02-15T00:17:17.585Z,102238.84
2023-02-15T00:19:46.424Z,102233.66
2023-02-15T00:22:15.510Z,102225.81
2023-02-15T00:24:44.276Z,102233.66
2023-02-15T00:27:13.404Z,102223.28
2023-02-15T00:29:43.593Z,102222.38
2023-02-15T00:32:12.641Z,102225.91
2023-02-15T00:34:42.947Z,102214.59
2023-02-15T00:37:12.153Z,102217.13
2023-02-15T00:39:40.971Z,102211.00
2023-02-15T00:42:10.094Z,102209.22
2023-02-15T00:44:38.922Z,102204.13
2023-02-15T00:47:09.397Z,102204.97
2023-02-15T00:49:38.236Z,102202.31
2023-02-15T00:52:07.376Z,102204.03
2023-02-15T00:54:36.675Z,102202.22
2023-02-15T00:57:06.274Z,102197.91
2023-02-15T00:59:35.090Z,102201.34
2023-02-15T01:02:04.283Z,102202.28
2023-02-15T01:04:34.454Z,102195.22
2023-02-15T01:07:04.641Z,102191.75
2023-02-15T01:09:35.582Z,102191.72
2023-02-15T01:12:05.943Z,102192.56
2023-02-15T01:14:34.731Z,102193.44
2023-02-15T01:17:04.168Z,102188.19
2023-02-15T01:19:38.313Z,102188.16
2023-02-15T01:22:09.204Z,102189.13
2023-02-15T01:24:38.332Z,102176.09
2023-02-15T01:27:07.468Z,102178.78
2023-02-15T01:29:36.326Z,102179.59
2023-02-15T01:32:05.938Z,102178.81
2023-02-15T01:34:35.005Z,102181.44
2023-02-15T01:37:05.507Z,102177.91
2023-02-15T01:39:34.289Z,102176.09
2023-02-15T01:42:03.437Z,102171.66
2023-02-15T01:44:53.537Z,102177.69
2023-02-15T01:47:31.884Z,102181.34
2023-02-15T01:50:10.709Z,102165.69
2023-02-15T01:52:51.269Z,102177.91
2023-02-15T01:55:22.836Z,102169.22
2023-02-15T01:57:53.743Z,102166.56
2023-02-15T02:00:23.671Z,102171.75
2023-02-15T02:02:59.013Z,102160.50
2023-02-15T02:05:28.513Z,102163.94
2023-02-15T02:08:03.684Z,102163.06
2023-02-15T02:10:33.660Z,102157.84
2023-02-15T02:13:08.158Z,102157.84
2023-02-15T02:15:50.155Z,102152.66
2023-02-15T02:18:43.719Z,102148.19
2023-02-15T02:21:43.245Z,102149.88
2023-02-15T02:24:48.740Z,102156.78
2023-02-15T02:27:32.906Z,102150.66
2023-02-15T02:30:47.356Z,102150.59
2023-02-15T02:33:41.776Z,102145.38
2023-02-15T02:36:30.099Z,102139.38
2023-02-15T02:39:17.610Z,102149.03
2023-02-15T02:42:02.462Z,102136.75
2023-02-15T02:44:43.917Z,102140.31
2023-02-15T02:47:22.383Z,102146.41
2023-02-15T02:50:00.958Z,102142.97
2023-02-15T02:52:43.230Z,102137.75
2023-02-15T02:55:20.086Z,102139.50
2023-02-15T02:57:57.842Z,102138.59
2023-02-15T03:00:31.710Z,102140.34
2023-02-15T03:03:08.437Z,102134.28
2023-02-15T03:05:46.562Z,102137.69
2023-02-15T03:08:22.936Z,102141.13
2023-02-15T03:10:57.906Z,102134.22
2023-02-15T03:13:28.359Z,102130.75
2023-02-15T03:16:16.977Z,102132.47
2023-02-15T03:18:53.813Z,102131.59
2023-02-15T03:21:34.546Z,102130.88
2023-02-15T03:24:11.619Z,102130.88
2023-02-15T03:26:45.283Z,102130.84
2023-02-15T03:29:19.345Z,102135.16
2023-02-15T03:31:56.011Z,102131.63
2023-02-15T03:34:25.742Z,102135.97
2023-02-15T03:37:08.094Z,102141.34
2023-02-15T03:39:48.220Z,102131.78
2023-02-15T03:42:24.820Z,102133.47
2023-02-15T03:45:01.642Z,102130.84
2023-02-15T03:47:36.518Z,102133.44
2023-02-15T03:50:31.653Z,102129.09
2023-02-15T03:53:05.977Z,102131.72
2023-02-15T03:55:37.037Z,102125.66
2023-02-15T03:58:25.859Z,102120.38
2023-02-15T04:01:19.087Z,102123.91
2023-02-15T04:03:56.563Z,102117.00
2023-02-15T04:06:25.637Z,102118.75
2023-02-15T04:09:13.006Z,102117.00
2023-02-15T04:11:42.063Z,102116.16
2023-02-15T04:14:24.710Z,102119.63
2023-02-15T04:16:53.871Z,102118.72
2023-02-15T04:19:40.085Z,102119.63
2023-02-15T04:22:26.623Z,102117.09
2023-02-15T04:25:11.645Z,102118.84
2023-02-15T04:27:42.298Z,102119.69
2023-02-15T04:30:14.419Z,102111.00
2023-02-15T04:32:44.085Z,102111.94
2023-02-15T04:35:13.359Z,102111.13
2023-02-15T04:37:44.298Z,102115.38
2023-02-15T04:40:19.367Z,102112.97
2023-02-15T04:42:50.950Z,102112.94
2023-02-15T04:45:20.279Z,102118.06
2023-02-15T04:47:49.304Z,102108.47
2023-02-15T04:50:18.493Z,102106.66
2023-02-15T04:52:47.624Z,102110.09
2023-02-15T04:55:17.955Z,102106.63
2023-02-15T04:57:48.158Z,102112.72
2023-02-15T05:00:17.780Z,102111.88
2023-02-15T05:02:46.847Z,102117.09
2023-02-15T05:05:16.350Z,102117.16
2023-02-15T05:07:45.425Z,102120.78
2023-02-15T05:10:14.198Z,102122.59
2023-02-15T05:12:44.657Z,102120.00
2023-02-15T05:15:13.484Z,102119.16
2023-02-15T05:17:42.702Z,102127.03
2023-02-15T05:20:12.536Z,102139.16
2023-02-15T05:22:42.403Z,102141.72
2023-02-15T05:25:28.941Z,102141.72
2023-02-15T05:28:16.798Z,102138.31
2023-02-15T05:30:45.689Z,102143.56
2023-02-15T05:33:14.894Z,102140.13
2023-02-15T05:35:43.771Z,102141.88
2023-02-15T05:38:12.825Z,102146.25
2023-02-15T05:40:41.634Z,102133.31
2023-02-15T05:43:12.076Z,102138.47
2023-02-15T05:45:40.949Z,102135.91
2023-02-15T05:48:10.044Z,102133.31
2023-02-15T05:50:38.853Z,102135.91
2023-02-15T05:53:07.924Z,102137.66
2023-02-15T05:55:39.160Z,102130.69
2023-02-15T05:58:08.882Z,102139.38
2023-02-15T06:00:39.049Z,102135.06
2023-02-15T06:03:08.184Z,102138.53
2023-02-15T06:05:37.002Z,102129.03
2023-02-15T06:08:06.278Z,102130.81
2023-02-15T06:10:35.086Z,102136.91
2023-02-15T06:13:04.164Z,102129.09
2023-02-15T06:15:33.022Z,102137.03
2023-02-15T06:18:03.447Z,102137.09
2023-02-15T06:20:32.235Z,102132.69
2023-02-15T06:23:01.279Z,102130.91
2023-02-15T06:25:30.064Z,102142.09
2023-02-15T06:27:59.133Z,102143.88
2023-02-15T06:30:28.075Z,102142.13
2023-02-15T06:32:57.268Z,102144.78
2023-02-15T06:35:27.507Z,102139.66
2023-02-15T06:37:56.739Z,102146.53
2023-02-15T06:40:25.512Z,102139.59
2023-02-15T06:42:54.803Z,102146.69
2023-02-15T06:45:23.656Z,102144.09
2023-02-15T06:47:52.839Z,102145.28
2023-02-15T06:50:21.900Z,102148.75
2023-02-15T06:52:57.893Z,102147.88
2023-02-15T06:55:27.114Z,102140.88
2023-02-15T06:57:56.608Z,102138.16
2023-02-15T07:00:25.708Z,102143.31
2023-02-15T07:02:58.660Z,102146.75
2023-02-15T07:05:31.841Z,102139.88
2023-02-15T07:08:03.066Z,102142.34
2023-02-15T07:10:31.985Z,102142.34
2023-02-15T07:13:00.129Z,102140.59
2023-02-15T07:15:28.983Z,102140.75
2023-02-15T07:18:00.169Z,102133.81
2023-02-15T07:20:29.674Z,102142.47
2023-02-15T07:22:58.780Z,102134.72
2023-02-15T07:25:28.990Z,102138.16
2023-02-15T07:27:59.555Z,102136.59
2023-02-15T07:30:28.982Z,102143.53
2023-02-15T07:33:16.332Z,102140.06
2023-02-15T07:35:50.133Z,102139.16
2023-02-15T07:38:20.068Z,102134.84
2023-02-15T07:40:50.270Z,102140.94
2023-02-15T07:43:19.537Z,102139.31
2023-02-15T07:45:48.362Z,102134.94
2023-02-15T07:48:17.420Z,102129.78
2023-02-15T07:50:46.219Z,102134.13
2023-02-15T07:53:15.413Z,102128.91
2023-02-15T07:55:44.309Z,102127.16
2023-02-15T07:58:14.756Z,102129.78
2023-02-15T08:03:38.030Z,102124.56
2023-02-15T08:06:07.966Z,102127.16
2023-02-15T08:08:37.134Z,102127.16
2023-02-15T08:11:30.229Z,102121.09
2023-02-15T08:14:03.434Z,102126.22
2023-02-15T08:16:36.197Z,102122.75
2023-02-15T08:19:08.951Z,102122.97
2023-02-15T08:21:41.352Z,102115.28
2023-02-15T08:24:13.131Z,102102.16
2023-02-15T08:26:43.851Z,102103.03
2023-02-15T08:29:13.092Z,102111.78
2023-02-15T08:31:42.798Z,102109.38
2023-02-15T08:34:17.035Z,102106.75
2023-02-15T08:36:47.286Z,102112.75
2023-02-15T08:39:17.713Z,102111.88
2023-02-15T08:41:48.982Z,102109.19
2023-02-15T08:44:20.106Z,102102.13
2023-02-15T08:46:51.658Z,102099.47
2023-02-15T08:49:23.735Z,102097.66
2023-02-15T08:51:52.856Z,102098.53
2023-02-15T08:54:23.611Z,102095.09
2023-02-15T08:56:52.721Z,102089.91
2023-02-15T08:59:24.291Z,102085.53
2023-02-15T09:01:54.856Z,102087.25
2023-02-15T09:04:25.107Z,102083.75
2023-02-15T09:06:54.724Z,102090.63
2023-02-15T09:09:24.082Z,102082.78
2023-02-15T09:11:58.751Z,102089.75
2023-02-15T09:14:29.207Z,102082.84
2023-02-15T09:16:58.798Z,102077.59
2023-02-15T09:19:29.424Z,102074.13
2023-02-15T09:21:59.549Z,102064.56
2023-02-15T09:24:28.476Z,102071.53
2023-02-15T09:26:57.808Z,102065.53
2023-02-15T09:29:26.618Z,102073.44
2023-02-15T09:31:55.847Z,102069.50
2023-02-15T09:34:25.570Z,102067.53
2023-02-15T09:36:56.140Z,102068.22
2023-02-15T09:39:27.689Z,102070.00
2023-02-15T09:42:46.065Z,102066.56
2023-02-15T09:45:30.770Z,102072.63
2023-02-15T09:48:28.619Z,102060.50
2023-02-15T09:51:20.149Z,102062.34
2023-02-15T09:54:23.731Z,102071.41
2023-02-15T09:57:00.419Z,102067.09
2023-02-15T09:59:43.859Z,102067.75
2023-02-15T10:02:32.897Z,102056.63
2023-02-15T10:05:23.807Z,102062.06
2023-02-15T10:08:22.223Z,102054.00
2023-02-15T10:11:24.730Z,102053.78
2023-02-15T10:14:13.715Z,102049.31
2023-02-15T10:16:58.380Z,102051.84
2023-02-15T10:19:45.382Z,102043.13
2023-02-15T10:22:32.210Z,102045.81
2023-02-15T10:25:22.088Z,102037.16
2023-02-15T10:27:52.954Z,102042.47
2023-02-15T10:30:34.933Z,102037.31
2023-02-15T10:33:12.176Z,102031.22
2023-02-15T10:35:54.669Z,102029.34
2023-02-15T10:38:38.455Z,102025.94
2023-02-15T10:41:26.197Z,102023.25
2023-02-15T10:44:23.803Z,102016.22
2023-02-15T10:47:18.548Z,102018.66
2023-02-15T10:50:19.158Z,102014.09
2023-02-15T10:53:12.090Z,102005.56
2023-02-15T10:55:57.728Z,102008.47
2023-02-15T10:58:49.407Z,102009.50
2023-02-15T11:01:29.486Z,101995.53
2023-02-15T11:04:40.683Z,102007.47
2023-02-15T11:07:20.479Z,101993.38
2023-02-15T11:09:56.821Z,101992.34
2023-02-15T11:12:31.247Z,101990.59
2023-02-15T11:15:07.113Z,101992.25
2023-02-15T11:17:44.395Z,101992.34
2023-02-15T11:20:26.188Z,101990.81
2023-02-15T11:22:57.956Z,101991.19
2023-02-15T11:25:32.229Z,101987.69
2023-02-15T11:28:05.857Z,101984.84
2023-02-15T11:30:45.888Z,101981.31
2023-02-15T11:33:25.911Z,101979.25
2023-02-15T11:36:02.822Z,101986.00
2023-02-15T11:38:35.552Z,101982.44
2023-02-15T11:41:11.859Z,101977.91
2023-02-15T11:43:49.418Z,101975.31
2023-02-15T11:46:19.874Z,101975.28
2023-02-15T11:48:51.157Z,101977.03
2023-02-15T11:51:24.449Z,101972.00
2023-02-15T11:53:54.743Z,101973.13
2023-02-15T11:56:26.965Z,101970.31
2023-02-15T11:59:03.895Z,101967.00
2023-02-15T12:01:37.524Z,101965.06
2023-02-15T12:04:20.755Z,101961.56
2023-02-15T12:07:02.311Z,101954.78
2023-02-15T12:09:39.363Z,101954.66
2023-02-15T12:12:26.531Z,101951.28
2023-02-15T12:14:57.746Z,101948.63
2023-02-15T12:17:30.612Z,101948.78
2023-02-15T12:20:05.655Z,101938.28
2023-02-15T12:22:38.355Z,101942.75
2023-02-15T12:25:26.732Z,101932.28
2023-02-15T12:27:55.802Z,101938.56
2023-02-15T12:30:35.153Z,101934.59
2023-02-15T12:33:19.226Z,101939.53
2023-02-15T12:35:57.124Z,101942.00
2023-02-15T12:38:29.452Z,101932.28
2023-02-15T12:41:04.532Z,101921.66
2023-02-15T12:43:37.627Z,101930.38
2023-02-15T12:46:23.624Z,101924.34
2023-02-15T12:49:09.971Z,101912.34
2023-02-15T12:51:49.525Z,101905.53
2023-02-15T12:54:37.048Z,101907.16
2023-02-15T12:57:25.561Z,101901.81
2023-02-15T12:59:57.960Z,101904.88
2023-02-15T13:02:33.535Z,101894.56
2023-02-15T13:05:19.605Z,101896.31
2023-02-15T13:07:55.748Z,101895.34
2023-02-15T13:10:29.497Z,101896.28
2023-02-15T13:13:00.059Z,101891.03
2023-02-15T13:15:37.567Z,101883.47
2023-02-15T13:18:16.446Z,101883.41
2023-02-15T13:20:47.171Z,101879.88
2023-02-15T13:23:32.096Z,101880.06
2023-02-15T13:26:07.172Z,101880.84
2023-02-15T13:28:44.599Z,101871.53
2023-02-15T13:31:17.531Z,101871.31
2023-02-15T13:33:53.600Z,101869.56
2023-02-15T13:36:33.912Z,101869.44
2023-02-15T13:39:22.886Z,101869.31
2023-02-15T13:42:03.572Z,101868.38
2023-02-15T13:45:11.382Z,101862.31
2023-02-15T13:47:53.016Z,101869.13
2023-02-15T13:51:05.576Z,101860.13
2023-02-15T13:54:14.027Z,101864.28
2023-02-15T13:57:03.210Z,101872.94
2023-02-15T13:59:57.256Z,101866.25
2023-02-15T14:03:00.606Z,101867.34
2023-02-15T14:05:51.740Z,101866.31
2023-02-15T14:08:39.344Z,101856.94
2023-02-15T14:11:21.152Z,101849.97
2023-02-15T14:14:30.398Z,101853.53
2023-02-15T14:17:12.861Z,101855.66
2023-02-15T14:19:51.052Z,101851.00
2023-02-15T14:22:32.920Z,101854.44
2023-02-15T14:25:20.909Z,101841.53
2023-02-15T14:28:01.322Z,101853.47
2023-02-15T14:30:36.983Z,101852.41
2023-02-15T14:33:10.629Z,101846.19
2023-02-15T14:35:43.248Z,101843.34
2023-02-15T14:38:38.257Z,101838.47
2023-02-15T14:41:15.884Z,101837.63
2023-02-15T14:43:56.970Z,101844.00
2023-02-15T14:46:38.754Z,101844.22
2023-02-15T14:49:13.712Z,101834.38
2023-02-15T14:52:08.143Z,101835.97
2023-02-15T14:54:59.357Z,101834.31
2023-02-15T14:57:37.393Z,101840.31
2023-02-15T15:00:42.418Z,101827.25
2023-02-15T15:03:26.125Z,101824.72
2023-02-15T15:06:07.242Z,101830.03
2023-02-15T15:08:42.193Z,101818.97
2023-02-15T15:11:44.299Z,101821.91
2023-02-15T15:14:43.004Z,101823.66
2023-02-15T15:17:56.166Z,101812.78
2023-02-15T15:20:52.031Z,101822.00
2023-02-15T15:23:47.953Z,101817.47
2023-02-15T15:26:34.346Z,101810.47
2023-02-15T15:29:04.832Z,101813.09
2023-02-15T15:31:54.739Z,101805.22
2023-02-15T15:35:16.360Z,101805.28
2023-02-15T15:38:30.312Z,101798.81
2023-02-15T15:41:21.215Z,101797.00
2023-02-15T15:44:31.067Z,101800.22
2023-02-15T15:47:32.113Z,101800.31
2023-02-15T15:50:02.111Z,101794.31
2023-02-15T15:52:36.445Z,101791.69
2023-02-15T15:55:18.929Z,101790.19
2023-02-15T15:57:53.569Z,101794.47
2023-02-15T16:00:38.468Z,101792.66
2023-02-15T16:03:08.058Z,101797.97
2023-02-15T16:05:39.837Z,101792.00
2023-02-15T16:08:09.147Z,101788.56
2023-02-15T16:10:39.981Z,101786.56
2023-02-15T16:13:09.719Z,101792.56
2023-02-15T16:15:50.539Z,101790.88
2023-02-15T16:18:23.723Z,101788.00
2023-02-15T16:20:57.630Z,101789.75
2023-02-15T16:24:05.311Z,101789.03
2023-02-15T16:27:11.482Z,101782.13
2023-02-15T16:29:40.793Z,101776.84
2023-02-15T16:32:21.329Z,101776.72
2023-02-15T16:34:59.068Z,101768.75
2023-02-15T16:37:33.402Z,101764.50
2023-02-15T16:40:02.754Z,101768.94
2023-02-15T16:42:33.478Z,101772.59
2023-02-15T16:45:11.138Z,101770.00
2023-02-15T16:47:45.931Z,101773.44
2023-02-15T16:50:22.912Z,101764.09
2023-02-15T16:52:54.500Z,101753.97
2023-02-15T16:55:26.405Z,101761.75
2023-02-15T16:58:05.148Z,101756.88
2023-02-15T17:00:38.918Z,101754.16
2023-02-15T17:03:24.183Z,101751.69
2023-02-15T17:05:56.362Z,101745.63
2023-02-15T17:08:33.388Z,101748.97
2023-02-15T17:11:19.962Z,101754.84
2023-02-15T17:14:16.516Z,101747.16
2023-02-15T17:16:50.518Z,101750.59
2023-02-15T17:19:25.547Z,101738.88
2023-02-15T17:21:59.233Z,101735.47
2023-02-15T17:24:39.303Z,101743.16
2023-02-15T17:27:16.831Z,101733.63
2023-02-15T17:29:52.899Z,101737.34
2023-02-15T17:32:26.034Z,101733.81
2023-02-15T17:35:21.395Z,101726.78
2023-02-15T17:37:51.079Z,101726.75
2023-02-15T17:40:27.660Z,101723.25
2023-02-15T17:42:57.158Z,101712.84
2023-02-15T17:45:35.293Z,101719.09
2023-02-15T17:48:07.614Z,101713.69
2023-02-15T17:50:37.947Z,101718.84
2023-02-15T17:53:10.907Z,101705.97
2023-02-15T17:55:39.310Z,101710.25
2023-02-15T17:58:11.533Z,101702.47
2023-02-15T18:01:03.438Z,101699.94
2023-02-15T18:04:00.605Z,101696.69
2023-02-15T18:06:47.358Z,101692.66
2023-02-15T18:09:36.597Z,101689.25
2023-02-15T18:12:20.836Z,101683.00
2023-02-15T18:14:50.161Z,101691.50
2023-02-15T18:17:23.536Z,101696.78
2023-02-15T18:19:54.211Z,101688.97
2023-02-15T18:22:23.625Z,101691.50
2023-02-15T18:24:52.451Z,101695.84
2023-02-15T18:27:22.583Z,101681.97
2023-02-15T18:29:51.526Z,101679.47
2023-02-15T18:32:32.729Z,101676.81
2023-02-15T18:35:04.583Z,101674.19
2023-02-15T18:37:35.825Z,101672.69
2023-02-15T18:40:05.140Z,101672.81
2023-02-15T18:42:36.593Z,101676.00
2023-02-15T18:45:16.876Z,101659.69
2023-02-15T18:47:49.476Z,101671.66
2023-02-15T18:50:21.463Z,101668.97
2023-02-15T18:52:52.392Z,101668.06
2023-02-15T18:55:24.836Z,101674.06
2023-02-15T18:57:57.640Z,101676.38
2023-02-15T19:00:30.341Z,101669.47
2023-02-15T19:03:02.796Z,101660.63
2023-02-15T19:05:34.127Z,101656.16
2023-02-15T19:08:04.575Z,101657.84
2023-02-15T19:10:34.787Z,101654.44
2023-02-15T19:13:03.975Z,101658.75
2023-02-15T19:15:33.047Z,101650.84
2023-02-15T19:18:03.545Z,101650.91
2023-02-15T19:20:37.406Z,101645.41
2023-02-15T19:23:13.267Z,101646.78
2023-02-15T19:25:43.600Z,101646.22
2023-02-15T19:28:19.344Z,101650.44
2023-02-15T19:30:48.651Z,101647.78
2023-02-15T19:33:23.852Z,101640.84
2023-02-15T19:35:57.476Z,101634.63
2023-02-15T19:38:33.109Z,101635.41
2023-02-15T19:41:07.721Z,101630.16
2023-02-15T19:43:37.381Z,101624.88
2023-02-15T19:46:06.709Z,101636.84
2023-02-15T19:48:37.325Z,101628.88
2023-02-15T19:51:06.394Z,101620.13
2023-02-15T19:53:35.482Z,101615.81
2023-02-15T19:56:04.660Z,101631.47
2023-02-15T19:58:34.732Z,101633.16
2023-02-15T20:01:03.895Z,101623.78
2023-02-15T20:03:33.143Z,101618.63
2023-02-15T20:06:03.889Z,101612.63
2023-02-15T20:08:33.863Z,101607.41
2023-02-15T20:11:03.059Z,101605.69
2023-02-15T20:13:32.253Z,101608.41
2023-02-15T20:16:04.971Z,101593.72
2023-02-15T20:18:34.076Z,101598.13
2023-02-15T20:21:05.654Z,101595.56
2023-02-15T20:23:37.363Z,101588.69
2023-02-15T20:26:18.398Z,101595.66
2023-02-15T20:28:48.676Z,101587.91
2023-02-15T20:31:20.500Z,101587.00
2023-02-15T20:33:49.748Z,101588.81
2023-02-15T20:36:22.916Z,101589.78
2023-02-15T20:38:52.551Z,101582.06
2023-02-15T20:41:39.914Z,101576.91
2023-02-15T20:44:24.421Z,101579.69
2023-02-15T20:46:56.193Z,101574.63
2023-02-15T20:49:27.121Z,101566.94
2023-02-15T20:51:58.796Z,101577.38
2023-02-15T20:54:31.937Z,101569.66
2023-02-15T20:57:00.769Z,101568.00
2023-02-15T20:59:32.868Z,101568.00
2023-02-15T21:02:15.595Z,101571.53
2023-02-15T21:04:44.833Z,101569.03
2023-02-15T21:07:18.808Z,101562.16
2023-02-15T21:09:48.662Z,101562.28
2023-02-15T21:12:21.188Z,101563.19
2023-02-15T21:14:50.279Z,101558.94
2023-02-15T21:17:20.782Z,101560.75
2023-02-15T21:19:50.053Z,101547.84
2023-02-15T21:22:21.558Z,101545.28
2023-02-15T21:24:54.783Z,101543.63
2023-02-15T21:27:23.702Z,101549.75
2023-02-15T21:29:53.068Z,101542.03
2023-02-15T21:32:22.024Z,101544.69
2023-02-15T21:34:51.145Z,101542.16
2023-02-15T21:37:36.668Z,101545.78
2023-02-15T21:40:07.217Z,101545.03
2023-02-15T21:42:53.520Z,101539.06
2023-02-15T21:45:39.794Z,101527.03
2023-02-15T21:48:08.701Z,101512.38
2023-02-15T21:50:56.652Z,101514.16
2023-02-15T21:53:31.813Z,101508.22
2023-02-15T21:56:04.850Z,101507.34
2023-02-15T21:58:37.423Z,101509.06
2023-02-15T22:01:07.982Z,101502.94
2023-02-15T22:03:39.608Z,101503.78
2023-02-15T22:06:14.537Z,101508.09
2023-02-15T22:08:45.689Z,101505.50
2023-02-15T22:11:18.924Z,101492.50
2023-02-15T22:13:49.199Z,101491.66
2023-02-15T22:16:23.043Z,101478.75
2023-02-15T22:18:52.260Z,101477.03
2023-02-15T22:21:21.550Z,101464.19
2023-02-15T22:23:51.722Z,101459.81
2023-02-15T22:26:25.811Z,101465.94
2023-02-15T22:28:54.798Z,101466.84
2023-02-15T22:31:24.517Z,101465.19
2023-02-15T22:33:55.030Z,101455.72
2023-02-15T22:36:27.467Z,101446.28
2023-02-15T22:38:59.664Z,101448.91
2023-02-15T22:41:32.496Z,101446.31
2023-02-15T22:44:01.495Z,101442.06
2023-02-15T22:46:30.791Z,101443.75
2023-02-15T22:48:59.577Z,101442.03
2023-02-15T22:51:28.709Z,101454.13
2023-02-15T22:53:58.915Z,101447.25
2023-02-15T22:56:36.199Z,101442.97
2023-02-15T22:59:09.707Z,101442.97
2023-02-15T23:01:39.924Z,101441.38
2023-02-15T23:04:11.126Z,101446.56
2023-02-15T23:06:40.201Z,101433.69
2023-02-15T23:09:10.376Z,101435.41
2023-02-15T23:11:39.627Z,101439.78
2023-02-15T23:14:24.391Z,101426.88
2023-02-15T23:16:53.534Z,101433.78
2023-02-15T23:19:22.767Z,101435.53
2023-02-15T23:21:52.038Z,101429.56
2023-02-15T23:24:25.465Z,101428.69
2023-02-15T23:26:55.017Z,101428.69
2023-02-15T23:29:25.275Z,101432.28
2023-02-15T23:31:55.431Z,101427.97
2023-02-15T23:34:29.157Z,101423.66
2023-02-15T23:36:58.797Z,101422.84
2023-02-15T23:39:47.501Z,101417.72
2023-02-15T23:42:21.515Z,101414.31
2023-02-15T23:44:50.646Z,101405.66
2023-02-15T23:47:44.140Z,101400.50
2023-02-15T23:50:19.684Z,101398.78
2023-02-15T23:52:49.246Z,101393.63
2023-02-15T23:55:20.517Z,101383.25
2023-02-15T23:57:50.743Z,101383.25
